Time;durP1;ratioP1;P1;durP2;ratioP2;P2;SDS_P1;SDS_P2;PMS_P1;PMS_P2;Temp;Humidity;BMP_temperature;BMP_pressure;BME280_temperature;BME280_humidity;BME280_pressure;Samples;Min_cycle;Max_cycle;Signal;HPM_P1;HPM_P2
2021/05/25 00:00:22;;;;;;;0.28;0.28;;;;;;;13.77;70.34;98076.47;128534;1108;116305;-85
2021/05/25 00:02:49;;;;;;;0.30;0.30;;;;;;;13.78;70.87;98043.65;128513;1108;115389;-85
2021/05/25 00:05:22;;;;;;;0.30;0.30;;;;;;;13.80;70.99;98027.09;129301;1108;23020;-86
2021/05/25 00:07:48;;;;;;;0.40;0.40;;;;;;;13.81;70.70;98032.16;128465;1108;115908;-85
2021/05/25 00:10:15;;;;;;;0.30;0.30;;;;;;;13.85;70.15;98026.86;128503;1108;116301;-85
2021/05/25 00:12:42;;;;;;;0.50;0.50;;;;;;;13.85;70.24;98011.41;128497;1108;115537;-85
2021/05/25 00:15:11;;;;;;;0.40;0.40;;;;;;;13.87;69.92;97989.41;128488;1108;116174;-85
2021/05/25 00:17:37;;;;;;;0.20;0.20;;;;;;;13.87;69.64;98003.75;129324;1108;22663;-85
2021/05/25 00:20:08;;;;;;;0.28;0.28;;;;;;;13.87;69.82;98024.59;129317;1108;22530;-85
2021/05/25 00:22:36;;;;;;;0.28;0.28;;;;;;;13.88;69.82;98042.42;128553;1108;115920;-86
2021/05/25 00:25:03;;;;;;;0.45;0.40;;;;;;;13.90;70.25;98032.82;128533;1108;115950;-86
2021/05/25 00:27:29;;;;;;;0.25;0.25;;;;;;;13.95;70.52;98024.49;128461;1107;115499;-86
2021/05/25 00:29:54;;;;;;;0.17;0.17;;;;;;;13.98;70.44;98042.73;128432;1108;115734;-85
2021/05/25 00:32:20;;;;;;;0.40;0.40;;;;;;;14.01;69.97;98049.41;129339;1108;22554;-86
2021/05/25 00:34:46;;;;;;;0.20;0.20;;;;;;;14.03;69.82;98043.64;128448;1108;115467;-85
2021/05/25 00:37:12;;;;;;;0.20;0.20;;;;;;;14.03;69.73;98039.03;128515;1108;116010;-85
2021/05/25 00:39:38;;;;;;;0.18;0.18;;;;;;;14.04;69.44;98051.44;128470;1107;117008;-85
2021/05/25 00:42:05;;;;;;;0.30;0.30;;;;;;;14.04;69.42;98037.11;128528;1107;115746;-85
2021/05/25 00:44:31;;;;;;;0.20;0.20;;;;;;;14.04;69.42;98021.66;129262;1108;22544;-85
2021/05/25 00:46:57;;;;;;;0.30;0.30;;;;;;;14.04;69.78;98007.34;128502;1108;115391;-85
2021/05/25 00:49:24;;;;;;;0.10;0.10;;;;;;;14.09;69.93;98023.34;128461;1108;115501;-85
2021/05/25 00:51:50;;;;;;;0.40;0.40;;;;;;;14.12;70.09;98018.03;128516;1108;115350;-86
2021/05/25 00:54:16;;;;;;;0.10;0.10;;;;;;;14.16;69.92;98018.93;128538;1107;116150;-85
2021/05/25 00:56:42;;;;;;;0.20;0.20;;;;;;;14.18;69.38;98026.70;128522;1106;115596;-85
2021/05/25 00:59:08;;;;;;;0.20;0.20;;;;;;;14.21;69.29;98042.27;129364;1108;22500;-86
2021/05/25 01:01:35;;;;;;;0.20;0.20;;;;;;;14.21;69.20;97996.23;128485;1108;116016;-85
2021/05/25 01:04:01;;;;;;;0.20;0.20;;;;;;;14.22;69.04;98017.55;128531;1108;115997;-86
2021/05/25 01:06:27;;;;;;;0.20;0.20;;;;;;;14.22;69.18;98063.58;128557;1107;115138;-86
2021/05/25 01:08:57;;;;;;;0.30;0.30;;;;;;;14.23;68.57;98021.07;128499;1108;116455;-86
2021/05/25 01:11:24;;;;;;;0.30;0.30;;;;;;;14.25;69.60;98018.80;129361;1108;22499;-86
2021/05/25 01:13:54;;;;;;;0.30;0.30;;;;;;;14.29;69.62;98065.73;128507;1107;115749;-86
2021/05/25 01:16:23;;;;;;;0.40;0.40;;;;;;;14.35;69.69;98063.59;128552;1108;115573;-86
2021/05/25 01:18:49;;;;;;;0.23;0.23;;;;;;;14.42;69.51;98051.05;128516;1108;115509;-86
2021/05/25 01:21:16;;;;;;;0.20;0.20;;;;;;;14.46;69.24;98062.78;128474;1108;115480;-86
2021/05/25 01:23:42;;;;;;;0.10;0.10;;;;;;;14.49;69.11;98061.31;128481;1108;115865;-86
2021/05/25 01:26:10;;;;;;;0.20;0.20;;;;;;;14.54;69.02;98057.58;129314;1107;22534;-86
2021/05/25 01:28:37;;;;;;;0.30;0.30;;;;;;;14.55;68.95;98064.59;128517;1108;115259;-87
2021/05/25 01:31:04;;;;;;;0.45;0.20;;;;;;;14.55;68.56;98070.80;128440;1108;115194;-86
2021/05/25 01:33:33;;;;;;;0.15;0.15;;;;;;;14.53;68.60;98070.33;128510;1108;115633;-86
2021/05/25 01:35:59;;;;;;;0.30;0.30;;;;;;;14.52;68.98;98051.72;128475;1108;115414;-86
2021/05/25 01:38:26;;;;;;;0.20;0.20;;;;;;;14.49;68.93;98007.13;129345;1108;23275;-86
2021/05/25 01:40:55;;;;;;;0.20;0.20;;;;;;;14.46;69.37;97999.66;128529;1108;115339;-86
2021/05/25 01:43:22;;;;;;;0.10;0.10;;;;;;;14.48;69.69;98002.83;128507;1108;115620;-86
2021/05/25 01:45:48;;;;;;;0.10;0.10;;;;;;;14.52;70.20;98005.67;128469;1108;115697;-86
2021/05/25 01:48:15;;;;;;;0.20;0.20;;;;;;;14.54;69.92;98017.75;128477;1108;116026;-86
2021/05/25 01:50:42;;;;;;;0.28;0.28;;;;;;;14.57;69.68;98011.63;128482;1108;116630;-85
2021/05/25 01:53:12;;;;;;;0.20;0.20;;;;;;;14.59;69.26;98014.79;129352;1107;22526;-86
2021/05/25 01:55:40;;;;;;;0.13;0.13;;;;;;;14.60;69.18;98038.03;128527;1107;115418;-86
2021/05/25 01:58:07;;;;;;;0.20;0.20;;;;;;;14.62;69.13;98043.09;128536;1107;115959;-85
2021/05/25 02:00:35;;;;;;;0.20;0.20;;;;;;;14.61;69.08;98028.77;128538;1108;115150;-86
2021/05/25 02:03:02;;;;;;;0.20;0.20;;;;;;;14.58;69.23;98026.77;128476;1108;116004;-86
2021/05/25 02:05:28;;;;;;;0.20;0.20;;;;;;;14.57;69.04;98046.05;129322;1108;23396;-86
2021/05/25 02:07:55;;;;;;;0.28;0.28;;;;;;;14.53;69.49;98061.42;128505;1107;115476;-86
2021/05/25 02:10:34;;;;;;;0.28;0.28;;;;;;;14.54;69.60;98063.81;128499;1107;115930;-86
2021/05/25 02:13:04;;;;;;;0.30;0.30;;;;;;;14.59;70.04;98055.43;128501;1108;115426;-86
2021/05/25 02:15:31;;;;;;;0.28;0.28;;;;;;;14.61;69.82;98046.95;128480;1107;115862;-86
2021/05/25 02:18:05;;;;;;;0.40;0.40;;;;;;;14.63;69.89;98017.60;128491;1108;115964;-86
2021/05/25 02:20:32;;;;;;;0.30;0.30;;;;;;;14.63;69.47;98023.02;129323;1108;22562;-86
2021/05/25 02:22:58;;;;;;;0.13;0.13;;;;;;;14.63;69.32;98031.94;128497;1108;115008;-86
2021/05/25 02:25:25;;;;;;;0.30;0.30;;;;;;;14.63;69.27;98031.15;128458;1108;115660;-86
2021/05/25 02:27:51;;;;;;;0.28;0.28;;;;;;;14.62;68.91;98022.23;128478;1108;115798;-86
2021/05/25 02:30:17;;;;;;;0.15;0.15;;;;;;;14.60;69.45;98032.61;128501;1108;116064;-86
2021/05/25 02:32:43;;;;;;;0.25;0.25;;;;;;;14.55;69.25;98026.66;128484;1108;115119;-86
2021/05/25 02:35:10;;;;;;;0.13;0.13;;;;;;;14.49;69.31;98036.94;129339;1108;22588;-86
2021/05/25 02:37:36;;;;;;;0.20;0.20;;;;;;;14.46;69.34;98034.88;128500;1108;114844;-87
2021/05/25 02:40:04;;;;;;;0.30;0.30;;;;;;;14.44;70.17;98034.44;128451;1107;116010;-87
2021/05/25 02:42:30;;;;;;;0.30;0.30;;;;;;;14.44;70.06;98047.98;128506;1108;115977;-87
2021/05/25 02:44:57;;;;;;;0.20;0.20;;;;;;;14.45;70.10;98053.05;128479;1108;116116;-87
2021/05/25 02:47:23;;;;;;;0.35;0.35;;;;;;;14.47;70.01;98044.60;129345;1107;22582;-87
2021/05/25 02:49:49;;;;;;;0.30;0.30;;;;;;;14.47;69.93;98042.67;128513;1108;115703;-86
2021/05/25 02:52:16;;;;;;;0.30;0.30;;;;;;;14.46;69.88;98046.52;128477;1108;115831;-86
2021/05/25 02:54:42;;;;;;;0.10;0.10;;;;;;;14.44;69.66;98053.41;128505;1108;116172;-86
2021/05/25 02:57:08;;;;;;;0.40;0.40;;;;;;;14.41;69.71;98045.95;128540;1108;115895;-86
2021/05/25 02:59:35;;;;;;;0.10;0.10;;;;;;;14.37;69.87;98045.84;129370;1107;22788;-87
2021/05/25 03:02:01;;;;;;;0.30;0.30;;;;;;;14.35;69.67;98041.92;128536;1108;115298;-86
2021/05/25 03:04:27;;;;;;;0.30;0.30;;;;;;;14.31;69.74;98039.11;128497;1108;115474;-86
2021/05/25 03:06:55;;;;;;;0.20;0.20;;;;;;;14.27;69.70;98034.72;128526;1108;115479;-85
2021/05/25 03:09:21;;;;;;;0.30;0.30;;;;;;;14.20;69.82;98019.82;128516;1107;115443;-87
2021/05/25 03:11:47;;;;;;;0.20;0.20;;;;;;;14.16;70.08;98015.44;128496;1107;116093;-86
2021/05/25 03:14:14;;;;;;;0.13;0.10;;;;;;;14.15;70.20;98017.36;129347;1108;23450;-86
2021/05/25 03:16:41;;;;;;;0.20;0.20;;;;;;;14.15;70.64;98006.53;128509;1108;115181;-86
2021/05/25 03:19:10;;;;;;;0.33;0.33;;;;;;;14.16;70.72;98013.52;128558;1108;115794;-86
2021/05/25 03:21:36;;;;;;;0.30;0.23;;;;;;;14.17;70.58;98006.17;128541;1107;115999;-86
2021/05/25 03:24:02;;;;;;;0.10;0.10;;;;;;;14.18;70.61;97988.79;128540;1107;115466;-86
2021/05/25 03:26:28;;;;;;;0.20;0.20;;;;;;;14.18;70.32;97983.38;129358;1108;22558;-85
2021/05/25 03:28:54;;;;;;;0.30;0.30;;;;;;;14.16;70.33;97982.95;128502;1108;115737;-86
2021/05/25 03:31:19;;;;;;;0.20;0.20;;;;;;;14.14;70.38;97983.27;128530;1108;115504;-86
2021/05/25 03:33:45;;;;;;;0.18;0.18;;;;;;;14.10;70.42;97997.83;128473;1107;114810;-86
2021/05/25 03:36:11;;;;;;;0.30;0.30;;;;;;;14.05;70.53;97976.42;128551;1108;115548;-86
2021/05/25 03:38:38;;;;;;;0.10;0.10;;;;;;;13.99;70.15;97992.91;129369;1108;22601;-86
2021/05/25 03:41:04;;;;;;;0.30;0.20;;;;;;;13.96;70.91;97998.20;129374;1107;22495;-87
2021/05/25 03:43:30;;;;;;;0.20;0.20;;;;;;;13.98;70.89;98004.84;128559;1107;114853;-86
2021/05/25 03:45:56;;;;;;;0.20;0.20;;;;;;;14.00;71.20;98018.84;128506;1108;115399;-86
2021/05/25 03:48:22;;;;;;;0.25;0.25;;;;;;;14.04;71.28;98023.58;128552;1108;115767;-87
2021/05/25 03:50:48;;;;;;;0.13;0.13;;;;;;;14.07;71.11;98031.81;128543;1107;115359;-85
2021/05/25 03:53:14;;;;;;;0.30;0.30;;;;;;;14.10;70.95;98051.98;129393;1108;22626;-86
2021/05/25 04:01:00;;;;;;;0.20;0.20;;;;;;;14.16;70.88;98056.05;128568;1107;115801;-86
2021/05/25 04:03:27;;;;;;;0.20;0.20;;;;;;;14.16;70.78;98047.92;128562;1108;115737;-88
2021/05/25 04:05:53;;;;;;;0.40;0.40;;;;;;;14.16;70.97;98046.00;128562;1107;115412;-87
2021/05/25 04:08:21;;;;;;;0.20;0.20;;;;;;;14.18;71.17;98042.95;129329;1107;22540;-89
2021/05/25 04:10:48;;;;;;;0.20;0.20;;;;;;;14.21;71.41;98039.56;128527;1108;115097;-88
2021/05/25 04:13:16;;;;;;;0.10;0.10;;;;;;;14.27;72.00;98037.43;128527;1108;114928;-88
2021/05/25 04:15:58;;;;;;;0.30;0.30;;;;;;;14.33;71.51;98038.75;128525;1108;114988;-89
2021/05/25 04:18:24;;;;;;;0.43;0.43;;;;;;;14.39;71.69;98045.52;128508;1108;115680;-88
2021/05/25 04:20:51;;;;;;;0.40;0.40;;;;;;;14.44;71.50;98042.56;128482;1107;115604;-88
2021/05/25 04:23:18;;;;;;;0.30;0.30;;;;;;;14.47;71.46;98036.47;129315;1108;23427;-87
2021/05/25 04:25:45;;;;;;;0.30;0.30;;;;;;;14.51;71.53;98047.45;128545;1108;115590;-88
2021/05/25 04:28:31;;;;;;;0.30;0.30;;;;;;;14.54;71.20;98065.70;128562;1107;115535;-89
2021/05/25 04:30:58;;;;;;;0.40;0.40;;;;;;;14.59;71.27;98065.48;128520;1108;115497;-88
2021/05/25 04:33:29;;;;;;;0.28;0.28;;;;;;;14.61;71.33;98066.70;128502;1108;115919;-88
2021/05/25 04:35:55;;;;;;;0.40;0.40;;;;;;;14.65;71.38;98066.80;128518;1108;115895;-90
2021/05/25 04:38:22;;;;;;;0.23;0.23;;;;;;;14.73;71.45;98074.00;129350;1107;22601;-90
2021/05/25 04:40:48;;;;;;;0.10;0.10;;;;;;;14.81;71.82;98061.45;128482;1108;115041;-89
2021/05/25 04:43:15;;;;;;;0.28;0.28;;;;;;;14.88;71.58;98065.14;128536;1108;115308;-87
2021/05/25 04:45:42;;;;;;;0.30;0.30;;;;;;;14.96;71.05;98068.84;128526;1108;115143;-90
2021/05/25 04:48:09;;;;;;;0.20;0.20;;;;;;;15.03;70.77;98074.47;128537;1108;115918;-86
2021/05/25 04:50:38;;;;;;;0.20;0.20;;;;;;;15.09;70.62;98070.39;129343;1107;22535;-88
2021/05/25 04:53:04;;;;;;;0.20;0.20;;;;;;;15.15;70.37;98068.98;129381;1108;22538;-88
2021/05/25 04:55:30;;;;;;;0.28;0.28;;;;;;;15.20;70.13;98073.37;128552;1107;114967;-88
2021/05/25 04:57:56;;;;;;;0.30;0.30;;;;;;;15.25;70.23;98080.45;128534;1108;115568;-88
2021/05/25 05:00:25;;;;;;;0.25;0.25;;;;;;;15.29;69.91;98079.44;128479;1108;115772;-86
2021/05/25 05:02:52;;;;;;;0.20;0.20;;;;;;;15.34;69.74;98083.82;128519;1108;115274;-86
2021/05/25 05:05:19;;;;;;;0.33;0.33;;;;;;;15.38;69.44;98082.77;129289;1107;22615;-85
2021/05/25 05:07:46;;;;;;;0.23;0.23;;;;;;;15.42;69.66;98072.80;128482;1107;115956;-86
2021/05/25 05:10:14;;;;;;;0.30;0.30;;;;;;;15.51;70.10;98080.77;128445;1108;115518;-85
2021/05/25 05:12:40;;;;;;;0.20;0.20;;;;;;;15.60;70.20;98075.17;128488;1108;115759;-86
2021/05/25 05:15:08;;;;;;;0.30;0.30;;;;;;;15.67;70.05;98076.17;128459;1108;116116;-85
2021/05/25 05:17:35;;;;;;;0.30;0.30;;;;;;;15.77;69.37;98080.30;129283;1108;22550;-85
2021/05/25 05:20:02;;;;;;;0.30;0.30;;;;;;;15.85;69.36;98095.63;128507;1108;115225;-85
2021/05/25 05:22:30;;;;;;;0.23;0.23;;;;;;;15.92;69.07;98095.80;128476;1107;115286;-87
2021/05/25 05:24:56;;;;;;;0.23;0.23;;;;;;;15.98;68.92;98100.95;128540;1108;115877;-85
2021/05/25 05:27:22;;;;;;;0.30;0.30;;;;;;;16.07;68.73;98101.55;128466;1108;115969;-85
2021/05/25 05:29:49;;;;;;;0.20;0.20;;;;;;;16.16;68.45;98113.83;128444;1108;115870;-86
2021/05/25 05:32:15;;;;;;;0.45;0.45;;;;;;;16.25;68.49;98113.64;129276;1107;22634;-86
2021/05/25 05:34:41;;;;;;;0.40;0.40;;;;;;;16.34;67.78;98108.80;128514;1108;114656;-86
2021/05/25 05:37:08;;;;;;;0.35;0.35;;;;;;;16.43;67.58;98100.47;128982;1107;115036;-87
2021/05/25 05:39:44;;;;;;;0.23;0.23;;;;;;;16.45;67.22;98112.55;128954;1108;115208;-86
2021/05/25 05:42:32;;;;;;;0.30;0.30;;;;;;;16.47;67.66;98109.48;128490;1108;114645;-87
2021/05/25 05:45:01;;;;;;;0.20;0.20;;;;;;;16.51;67.66;98098.70;128616;1108;114631;-85
2021/05/25 05:47:27;;;;;;;0.20;0.20;;;;;;;16.55;67.17;98086.76;128751;1108;22569;-86
2021/05/25 05:49:53;;;;;;;0.33;0.33;;;;;;;16.60;66.83;98088.41;128403;1108;115963;-85
2021/05/25 05:52:19;;;;;;;0.40;0.40;;;;;;;16.61;66.54;98087.25;128002;1108;115858;-85
2021/05/25 05:54:47;;;;;;;0.30;0.30;;;;;;;16.66;66.66;98090.50;127798;1108;115734;-85
2021/05/25 05:57:13;;;;;;;0.75;0.40;;;;;;;16.73;66.41;98100.75;128429;1108;115374;-86
2021/05/25 05:59:39;;;;;;;0.35;0.35;;;;;;;16.76;66.04;98108.20;128648;1108;115972;-85
2021/05/25 06:02:05;;;;;;;0.28;0.28;;;;;;;16.79;65.56;98112.14;129064;1107;123316;-85
2021/05/25 06:04:32;;;;;;;0.28;0.28;;;;;;;16.81;65.40;98118.00;128079;1108;115696;-85
2021/05/25 06:06:58;;;;;;;0.20;0.20;;;;;;;16.86;65.53;98113.08;127783;1108;115563;-85
2021/05/25 06:09:24;;;;;;;0.30;0.30;;;;;;;16.95;65.52;98125.69;127766;1107;115935;-86
2021/05/25 06:11:53;;;;;;;0.20;0.20;;;;;;;17.12;66.10;98138.84;128373;1108;115953;-86
2021/05/25 06:14:19;;;;;;;0.30;0.30;;;;;;;17.24;65.76;98151.52;129282;1107;22550;-86
2021/05/25 06:16:45;;;;;;;0.23;0.23;;;;;;;17.42;65.19;98137.12;128427;1108;115657;-86
2021/05/25 06:19:11;;;;;;;0.20;0.20;;;;;;;17.60;64.59;98142.88;128477;1107;116915;-86
2021/05/25 06:21:37;;;;;;;0.45;0.30;;;;;;;17.72;64.42;98139.20;128496;1108;115028;-85
2021/05/25 06:24:04;;;;;;;0.30;0.30;;;;;;;17.86;64.33;98144.16;128480;1107;115774;-86
2021/05/25 06:26:30;;;;;;;0.30;0.30;;;;;;;17.95;63.45;98154.80;129347;1108;22544;-86
2021/05/25 06:28:56;;;;;;;0.30;0.30;;;;;;;17.92;63.05;98161.78;128529;1108;114825;-86
2021/05/25 06:31:22;;;;;;;0.20;0.20;;;;;;;17.86;63.18;98158.56;128520;1108;115295;-86
2021/05/25 06:33:48;;;;;;;0.30;0.30;;;;;;;17.83;62.93;98155.77;128523;1107;115925;-86
2021/05/25 06:36:15;;;;;;;0.28;0.28;;;;;;;17.80;62.87;98161.94;128492;1107;115859;-85
2021/05/25 06:38:41;;;;;;;0.30;0.30;;;;;;;17.75;63.15;98173.13;128489;1107;115683;-86
2021/05/25 06:41:07;;;;;;;0.40;0.40;;;;;;;17.75;63.42;98164.96;129311;1108;22531;-86
2021/05/25 06:43:33;;;;;;;0.20;0.20;;;;;;;17.77;63.23;98166.19;128509;1107;115480;-86
2021/05/25 06:46:00;;;;;;;0.30;0.30;;;;;;;17.76;63.68;98177.42;128515;1107;116354;-86
2021/05/25 06:48:26;;;;;;;0.30;0.30;;;;;;;17.77;64.26;98173.57;128472;1108;115565;-85
2021/05/25 06:50:52;;;;;;;0.40;0.40;;;;;;;17.83;64.24;98170.17;128501;1107;116095;-86
2021/05/25 06:53:19;;;;;;;0.33;0.33;;;;;;;17.97;64.03;98172.38;129321;1108;22549;-86
2021/05/25 06:55:45;;;;;;;0.40;0.40;;;;;;;18.12;63.60;98157.84;128477;1107;115611;-86
2021/05/25 06:58:11;;;;;;;0.25;0.25;;;;;;;18.22;63.32;98167.33;128558;1107;116437;-86
2021/05/25 07:00:37;;;;;;;0.50;0.50;;;;;;;18.33;63.26;98160.11;128472;1107;115793;-85
2021/05/25 07:03:05;;;;;;;0.43;0.43;;;;;;;18.43;62.93;98168.81;128460;1107;115904;-87
2021/05/25 07:05:31;;;;;;;0.28;0.28;;;;;;;18.58;62.52;98167.88;129333;1108;22528;-87
2021/05/25 07:07:58;;;;;;;0.30;0.30;;;;;;;18.65;62.25;98168.77;128494;1108;115499;-87
2021/05/25 07:10:26;;;;;;;0.33;0.33;;;;;;;18.63;62.45;98165.64;128480;1108;115538;-89
2021/05/25 07:12:52;;;;;;;0.33;0.33;;;;;;;18.68;62.14;98188.30;128532;1107;115735;-86
2021/05/25 07:15:18;;;;;;;0.30;0.30;;;;;;;18.67;61.66;98194.88;128504;1108;115192;-85
2021/05/25 07:17:47;;;;;;;0.40;0.40;;;;;;;18.61;61.87;98180.79;128517;1107;117016;-85
2021/05/25 07:20:14;;;;;;;0.33;0.33;;;;;;;18.54;61.07;98186.13;129309;1108;23079;-86
2021/05/25 07:22:40;;;;;;;0.40;0.40;;;;;;;18.42;61.25;98197.23;128477;1107;116055;-85
2021/05/25 07:25:07;;;;;;;0.38;0.38;;;;;;;18.34;61.46;98199.06;128540;1107;115197;-88
2021/05/25 07:27:33;;;;;;;0.38;0.38;;;;;;;18.29;61.65;98199.38;128520;1107;115460;-87
2021/05/25 07:29:59;;;;;;;0.40;0.40;;;;;;;18.23;61.43;98198.88;128503;1107;115322;-88
2021/05/25 07:32:25;;;;;;;0.30;0.30;;;;;;;18.15;61.83;98216.25;129332;1108;22636;-87
2021/05/25 07:34:51;;;;;;;0.33;0.33;;;;;;;18.06;61.93;98221.95;128448;1107;115502;-86
2021/05/25 07:37:18;;;;;;;0.30;0.30;;;;;;;17.89;62.09;98223.21;128523;1107;115484;-86
2021/05/25 07:39:44;;;;;;;0.30;0.30;;;;;;;17.75;63.12;98233.05;128500;1108;115797;-86
2021/05/25 07:42:11;;;;;;;0.33;0.33;;;;;;;17.65;63.43;98234.39;128512;1108;115583;-86
2021/05/25 07:44:37;;;;;;;0.40;0.40;;;;;;;17.55;63.07;98240.41;128583;1108;22567;-86
2021/05/25 07:47:03;;;;;;;0.40;0.40;;;;;;;17.48;62.99;98232.88;128446;1108;115127;-86
2021/05/25 07:49:29;;;;;;;0.43;0.33;;;;;;;17.39;63.09;98235.03;128508;1108;115450;-87
2021/05/25 07:51:56;;;;;;;0.30;0.30;;;;;;;17.28;63.18;98232.08;128511;1108;116138;-87
2021/05/25 07:54:22;;;;;;;0.40;0.40;;;;;;;17.22;63.78;98233.52;127790;1107;116048;-87
2021/05/25 07:56:49;;;;;;;0.40;0.40;;;;;;;17.17;63.75;98241.94;128526;1108;115806;-85
2021/05/25 07:59:15;;;;;;;0.33;0.33;;;;;;;17.14;63.93;98239.95;129326;1108;22661;-86
2021/05/25 08:01:42;;;;;;;0.30;0.30;;;;;;;17.08;63.91;98254.96;128483;1107;115120;-85
2021/05/25 08:04:08;;;;;;;0.50;0.50;;;;;;;17.03;64.05;98255.25;128501;1108;115751;-85
2021/05/25 08:06:37;;;;;;;0.40;0.40;;;;;;;17.03;63.63;98256.03;128495;1108;115513;-85
2021/05/25 08:09:05;;;;;;;0.48;0.48;;;;;;;17.02;64.49;98259.12;128494;1108;116027;-85
2021/05/25 08:11:33;;;;;;;0.38;0.38;;;;;;;17.05;64.25;98267.33;129333;1108;23274;-84
2021/05/25 08:13:59;;;;;;;0.43;0.38;;;;;;;17.09;64.31;98272.86;128509;1108;115811;-85
2021/05/25 08:16:30;;;;;;;0.40;0.40;;;;;;;17.07;64.09;98275.94;128485;1108;116602;-85
2021/05/25 08:21:34;;;;;;;0.30;0.30;;;;;;;16.97;63.50;98281.13;128511;1107;115869;-86
2021/05/25 08:24:01;;;;;;;0.85;0.50;;;;;;;16.87;63.60;98285.19;128475;1108;116017;-87
2021/05/25 08:26:27;;;;;;;0.48;0.40;;;;;;;16.81;63.93;98297.47;129289;1108;22558;-85
2021/05/25 08:28:54;;;;;;;0.43;0.43;;;;;;;16.75;63.79;98301.61;128513;1107;115304;-87
2021/05/25 08:31:21;;;;;;;0.35;0.35;;;;;;;16.59;64.00;98293.42;128511;1107;115804;-87
2021/05/25 08:33:51;;;;;;;0.40;0.40;;;;;;;16.49;63.81;98307.52;128479;1108;116467;-88
2021/05/25 08:36:18;;;;;;;0.30;0.30;;;;;;;16.38;64.12;98318.90;128445;1108;115095;-88
2021/05/25 08:38:45;;;;;;;0.30;0.30;;;;;;;16.28;64.23;98321.36;127719;1108;115347;-88
2021/05/25 08:41:12;;;;;;;0.33;0.33;;;;;;;16.22;64.58;98325.45;128620;1108;22541;-88
2021/05/25 08:43:39;;;;;;;0.20;0.20;;;;;;;16.21;65.11;98332.81;128479;1107;115307;-88
2021/05/25 08:46:06;;;;;;;0.43;0.43;;;;;;;16.22;64.94;98318.09;128481;1108;115303;-88
2021/05/25 08:48:36;;;;;;;0.30;0.30;;;;;;;16.31;64.86;98318.73;128483;1108;115022;-88
2021/05/25 08:51:03;;;;;;;0.43;0.40;;;;;;;16.43;64.15;98332.25;128484;1108;115878;-87
2021/05/25 08:53:30;;;;;;;0.40;0.40;;;;;;;16.50;64.52;98325.41;129300;1107;22549;-88
2021/05/25 08:55:56;;;;;;;0.35;0.35;;;;;;;16.52;64.31;98323.14;128490;1108;115207;-87
2021/05/25 08:58:27;;;;;;;0.43;0.43;;;;;;;16.53;63.74;98336.37;128487;1108;115056;-89
2021/05/25 09:01:11;;;;;;;0.40;0.40;;;;;;;16.56;63.43;98335.67;128495;1108;115358;-91
2021/05/25 09:03:57;;;;;;;0.35;0.35;;;;;;;16.60;63.49;98327.61;128526;1107;115367;-89
2021/05/25 09:06:51;;;;;;;0.30;0.30;;;;;;;16.65;63.56;98332.78;128492;1107;114856;-89
2021/05/25 09:09:19;;;;;;;0.40;0.40;;;;;;;16.66;63.26;98337.89;128461;1108;115646;-89
2021/05/25 09:12:13;;;;;;;0.30;0.30;;;;;;;16.67;63.06;98344.90;128510;1107;115756;-88
2021/05/25 09:15:10;;;;;;;0.38;0.38;;;;;;;16.64;63.40;98342.09;129312;1107;22614;-89
2021/05/25 09:18:15;;;;;;;0.70;0.70;;;;;;;16.59;63.17;98345.86;128550;1107;115704;-88
2021/05/25 09:20:47;;;;;;;0.50;0.50;;;;;;;16.52;62.97;98340.23;128530;1108;115573;-86
2021/05/25 09:23:16;;;;;;;0.53;0.35;;;;;;;16.48;63.24;98358.38;129335;1107;22528;-88
2021/05/25 09:25:53;;;;;;;0.50;0.50;;;;;;;16.46;63.22;98352.48;128462;1107;115538;-86
2021/05/25 09:29:21;;;;;;;0.35;0.35;;;;;;;16.42;63.80;98359.75;128181;1108;113830;-88
2021/05/25 09:31:51;;;;;;;0.33;0.33;;;;;;;16.49;64.03;98359.16;128573;1107;114763;-88
2021/05/25 09:34:24;;;;;;;0.40;0.40;;;;;;;16.59;64.10;98342.36;128480;1107;115365;-90
2021/05/25 09:36:57;;;;;;;0.40;0.40;;;;;;;16.62;64.08;98342.45;127752;1108;115239;-88
2021/05/25 09:39:28;;;;;;;0.40;0.40;;;;;;;16.65;63.54;98349.09;128530;1108;115402;-88
2021/05/25 09:41:56;;;;;;;0.30;0.30;;;;;;;16.67;63.15;98344.11;127748;1108;115780;-88
2021/05/25 09:44:58;;;;;;;0.48;0.48;;;;;;;16.75;62.99;98343.17;129244;1107;114529;-87
2021/05/25 09:47:41;;;;;;;0.30;0.30;;;;;;;16.79;63.19;98351.42;128954;1107;120090;-88
2021/05/25 09:50:10;;;;;;;0.48;0.48;;;;;;;16.78;63.28;98353.36;129335;1107;23431;-87
2021/05/25 09:52:56;;;;;;;0.88;0.45;;;;;;;16.75;62.73;98362.21;128136;1107;115168;-87
2021/05/25 09:55:24;;;;;;;0.40;0.40;;;;;;;16.69;62.83;98355.41;128466;1108;115425;-89
2021/05/25 09:57:54;;;;;;;0.30;0.30;;;;;;;16.62;63.08;98360.66;128444;1107;114925;-88
2021/05/25 10:00:49;;;;;;;0.40;0.40;;;;;;;16.58;62.84;98367.94;128419;1108;115496;-88
2021/05/25 10:03:21;;;;;;;0.40;0.40;;;;;;;16.49;63.11;98356.45;128518;1108;115630;-90
2021/05/25 10:05:59;;;;;;;0.40;0.40;;;;;;;16.39;62.32;98368.63;128464;1107;115911;-87
2021/05/25 10:08:26;;;;;;;0.27;0.27;;;;;;;16.32;62.47;98366.50;129329;1108;22518;-88
2021/05/25 10:10:58;;;;;;;0.30;0.30;;;;;;;16.28;62.61;98373.77;128480;1107;115312;-88
2021/05/25 10:13:31;;;;;;;0.35;0.35;;;;;;;16.24;62.71;98372.09;128483;1107;115577;-89
2021/05/25 10:16:39;;;;;;;0.70;0.35;;;;;;;16.15;63.68;98375.75;128429;1108;116400;-89
2021/05/25 10:19:28;;;;;;;0.33;0.33;;;;;;;16.13;64.70;98378.01;128468;1107;115205;-88
2021/05/25 10:21:55;;;;;;;0.20;0.20;;;;;;;16.12;64.50;98367.50;128513;1108;114905;-89
2021/05/25 10:24:24;;;;;;;0.30;0.30;;;;;;;16.17;64.18;98376.18;127707;1108;115711;-88
2021/05/25 10:26:54;;;;;;;0.40;0.40;;;;;;;16.29;63.71;98372.63;128492;1108;115503;-88
2021/05/25 10:29:22;;;;;;;0.40;0.40;;;;;;;16.44;63.55;98376.52;129320;1107;22573;-89
2021/05/25 10:32:01;;;;;;;0.20;0.20;;;;;;;16.61;62.63;98369.97;128545;1107;115046;-89
2021/05/25 10:34:35;;;;;;;0.30;0.30;;;;;;;16.74;62.04;98363.36;128493;1107;115159;-89
2021/05/25 10:37:05;;;;;;;0.40;0.40;;;;;;;16.90;61.55;98366.88;128453;1108;115366;-88
2021/05/25 10:39:39;;;;;;;0.30;0.30;;;;;;;16.99;61.26;98374.84;128475;1107;115015;-90
2021/05/25 10:42:17;;;;;;;0.28;0.28;;;;;;;17.07;60.31;98368.44;128464;1107;115974;-91
2021/05/25 10:45:05;;;;;;;0.30;0.30;;;;;;;17.13;60.08;98377.11;128566;1107;114835;-88
2021/05/25 10:48:06;;;;;;;0.30;0.30;;;;;;;17.16;59.67;98376.41;128528;1107;115766;-88
2021/05/25 10:50:37;;;;;;;0.30;0.30;;;;;;;17.15;59.71;98380.28;129318;1107;22511;-88
2021/05/25 10:53:16;;;;;;;0.35;0.35;;;;;;;17.17;59.46;98378.80;128470;1108;115965;-89
2021/05/25 10:55:44;;;;;;;0.40;0.40;;;;;;;17.09;59.82;98370.80;128562;1107;115556;-88
2021/05/25 10:58:31;;;;;;;0.48;0.48;;;;;;;17.10;59.38;98380.55;127706;1108;114489;-89
2021/05/25 11:01:07;;;;;;;0.30;0.30;;;;;;;17.08;59.48;98377.38;128477;1108;115070;-90
2021/05/25 11:04:05;;;;;;;0.30;0.30;;;;;;;17.03;59.79;98393.98;128456;1108;115779;-88
2021/05/25 11:06:35;;;;;;;0.30;0.30;;;;;;;16.94;59.59;98394.16;128477;1108;115606;-89
2021/05/25 11:09:29;;;;;;;0.20;0.20;;;;;;;16.84;59.55;98390.02;128497;1107;114043;-89
2021/05/25 11:12:24;;;;;;;0.35;0.35;;;;;;;16.88;59.66;98390.89;128481;1107;115449;-88
2021/05/25 11:15:21;;;;;;;0.30;0.30;;;;;;;16.85;59.76;98397.02;128379;1108;115335;-89
2021/05/25 11:17:50;;;;;;;0.30;0.30;;;;;;;16.85;59.79;98407.12;128530;1107;116027;-88
2021/05/25 11:20:38;;;;;;;0.30;0.30;;;;;;;16.86;59.38;98411.44;129357;1107;22527;-89
2021/05/25 11:23:44;;;;;;;0.30;0.30;;;;;;;16.83;59.24;98404.77;128637;1107;114791;-89
2021/05/25 11:26:49;;;;;;;0.30;0.30;;;;;;;16.85;59.24;98418.78;129370;1108;22516;-90
2021/05/25 11:29:22;;;;;;;0.20;0.20;;;;;;;16.82;59.46;98416.78;129383;1108;22532;-88
2021/05/25 11:32:42;;;;;;;0.25;0.25;;;;;;;16.85;58.77;98415.27;128559;1107;115967;-90
2021/05/25 11:35:19;;;;;;;0.30;0.30;;;;;;;16.91;58.83;98408.45;129362;1108;22592;-89
2021/05/25 11:37:52;;;;;;;0.38;0.38;;;;;;;17.04;58.99;98407.22;128478;1108;115245;-88
2021/05/25 11:40:22;;;;;;;0.30;0.30;;;;;;;17.23;58.38;98397.56;128519;1108;115014;-89